createdAt,value
2019-06-26T00:01:05.259Z,23.43
2019-06-26T00:02:15.381Z,23.39
2019-06-26T00:03:25.501Z,23.33
2019-06-26T00:04:35.647Z,23.39
2019-06-26T00:05:45.796Z,23.43
2019-06-26T00:06:55.982Z,23.31
2019-06-26T00:08:05.894Z,23.32
2019-06-26T00:09:16.029Z,23.33
2019-06-26T00:10:26.188Z,23.32
2019-06-26T00:11:36.565Z,23.25
2019-06-26T00:12:46.689Z,23.21
2019-06-26T00:13:56.352Z,23.21
2019-06-26T00:15:06.466Z,23.2
2019-06-26T00:16:16.610Z,23.2
2019-06-26T00:17:26.748Z,23.2
2019-06-26T00:18:36.970Z,23.13
2019-06-26T00:19:47.151Z,23.13
2019-06-26T00:20:57.300Z,23.18
2019-06-26T00:22:07.436Z,23.08
2019-06-26T00:23:17.579Z,23.21
2019-06-26T00:24:27.710Z,23.08
2019-06-26T00:25:37.835Z,23.06
2019-06-26T00:26:47.961Z,23.02
2019-06-26T00:27:58.082Z,23.09
2019-06-26T00:29:08.444Z,23.01
2019-06-26T00:30:18.597Z,23.02
2019-06-26T00:31:28.721Z,23.02
2019-06-26T00:32:38.915Z,23.06
2019-06-26T00:33:49.044Z,23.06
2019-06-26T00:34:59.189Z,22.99
2019-06-26T00:36:09.317Z,22.95
2019-06-26T00:37:19.503Z,23.06
2019-06-26T00:38:29.629Z,23.02
2019-06-26T00:39:39.790Z,22.99
2019-06-26T00:40:49.914Z,23.08
2019-06-26T00:42:00.132Z,23.06
2019-06-26T00:43:10.285Z,23.01
2019-06-26T00:44:20.450Z,23.03
2019-06-26T00:45:30.574Z,23.09
2019-06-26T00:46:40.710Z,23.06
2019-06-26T00:47:51.056Z,23.16
2019-06-26T00:49:01.182Z,23.05
2019-06-26T00:50:11.333Z,23.03
2019-06-26T00:51:21.479Z,23.06
2019-06-26T00:52:31.610Z,23.05
2019-06-26T00:53:41.776Z,23.16
2019-06-26T00:54:51.543Z,23.06
2019-06-26T00:56:01.730Z,23.02
2019-06-26T00:57:11.853Z,23.02
2019-06-26T00:58:21.983Z,23.01
2019-06-26T00:59:32.125Z,22.87
2019-06-26T01:00:42.269Z,22.89
2019-06-26T01:01:52.486Z,22.87
2019-06-26T01:03:02.604Z,22.9
2019-06-26T01:04:12.758Z,22.9
2019-06-26T01:05:22.548Z,22.87
2019-06-26T01:06:32.745Z,22.86
2019-06-26T01:07:42.899Z,22.8
2019-06-26T01:08:53.014Z,22.75
2019-06-26T01:10:03.152Z,22.8
2019-06-26T01:11:13.309Z,22.75
2019-06-26T01:12:26.956Z,22.73
2019-06-26T01:13:37.098Z,22.65
2019-06-26T01:15:02.776Z,22.65
2019-06-26T01:16:12.913Z,22.67
2019-06-26T01:17:23.041Z,22.65
2019-06-26T01:18:33.146Z,22.61
2019-06-26T01:19:43.371Z,22.63
2019-06-26T01:20:53.545Z,22.65
2019-06-26T01:22:03.671Z,22.65
2019-06-26T01:23:13.540Z,22.63
2019-06-26T01:24:23.886Z,22.53
2019-06-26T01:25:34.996Z,22.57
2019-06-26T01:26:45.146Z,22.58
2019-06-26T01:27:55.274Z,22.55
2019-06-26T01:29:05.388Z,22.52
2019-06-26T01:30:15.495Z,22.6
2019-06-26T01:31:25.611Z,22.6
2019-06-26T01:32:35.731Z,22.55
2019-06-26T01:33:45.866Z,22.55
2019-06-26T01:34:55.980Z,22.45
2019-06-26T01:36:06.164Z,22.45
2019-06-26T01:37:16.289Z,22.45
2019-06-26T01:38:26.400Z,22.45
2019-06-26T01:39:36.637Z,22.45
2019-06-26T01:40:46.754Z,22.48
2019-06-26T01:41:56.863Z,22.48
2019-06-26T01:43:07.081Z,22.33
2019-06-26T01:44:20.357Z,22.48
2019-06-26T01:45:30.243Z,22.34
2019-06-26T01:46:40.369Z,22.35
2019-06-26T01:47:50.497Z,22.39
2019-06-26T01:49:00.612Z,22.33
2019-06-26T01:50:10.726Z,22.38
2019-06-26T01:51:20.868Z,22.31
2019-06-26T01:52:30.980Z,22.38
2019-06-26T01:53:40.875Z,22.38
2019-06-26T01:54:50.989Z,22.33
2019-06-26T01:56:01.158Z,22.3
2019-06-26T01:57:11.326Z,22.28
2019-06-26T01:58:21.439Z,22.28
2019-06-26T01:59:31.578Z,22.26
2019-06-26T02:00:41.542Z,22.26
2019-06-26T02:01:51.701Z,22.26
2019-06-26T02:03:01.963Z,22.23
2019-06-26T02:04:15.466Z,22.21
2019-06-26T02:05:26.018Z,22.26
2019-06-26T02:06:36.137Z,22.31
2019-06-26T02:07:46.285Z,22.2
2019-06-26T02:08:56.659Z,22.26
2019-06-26T02:10:06.790Z,22.21
2019-06-26T02:11:16.957Z,22.28
2019-06-26T02:12:27.102Z,22.28
2019-06-26T02:13:37.476Z,22.28
2019-06-26T02:14:47.607Z,22.2
2019-06-26T02:15:57.802Z,22.21
2019-06-26T02:17:07.932Z,22.2
2019-06-26T02:18:18.039Z,22.23
2019-06-26T02:19:28.148Z,22.23
2019-06-26T02:20:38.295Z,22.21
2019-06-26T02:21:48.429Z,22.27
2019-06-26T02:22:58.649Z,22.28
2019-06-26T02:24:08.507Z,22.2
2019-06-26T02:25:18.674Z,22.2
2019-06-26T02:26:28.834Z,22.18
2019-06-26T02:27:39.034Z,22.12
2019-06-26T02:28:49.156Z,22.15
2019-06-26T02:29:59.303Z,22.16
2019-06-26T02:31:09.435Z,22.12
2019-06-26T02:32:19.615Z,22.09
2019-06-26T02:33:29.384Z,22.11
2019-06-26T02:34:39.519Z,22.11
2019-06-26T02:35:49.648Z,22.12
2019-06-26T02:36:59.805Z,22.06
2019-06-26T02:38:09.957Z,22.12
2019-06-26T02:39:20.081Z,22.11
2019-06-26T02:40:30.239Z,22.13
2019-06-26T02:41:40.358Z,22.05
2019-06-26T02:42:50.239Z,22.01
2019-06-26T02:44:01.173Z,22.13
2019-06-26T02:45:11.321Z,22.06
2019-06-26T02:46:21.446Z,22.11
2019-06-26T02:47:33.706Z,22.09
2019-06-26T02:48:43.843Z,22.03
2019-06-26T02:49:54.009Z,22.05
2019-06-26T02:51:04.154Z,22.06
2019-06-26T02:52:14.289Z,22.03
2019-06-26T02:53:24.410Z,22.03
2019-06-26T02:54:34.559Z,22.01
2019-06-26T02:55:44.678Z,21.93
2019-06-26T02:56:55.211Z,21.88
2019-06-26T02:58:05.354Z,21.96
2019-06-26T02:59:15.486Z,21.88
2019-06-26T03:00:25.617Z,21.91
2019-06-26T03:01:35.577Z,21.97
2019-06-26T03:02:45.770Z,21.94
2019-06-26T03:03:55.955Z,22.01
2019-06-26T03:05:06.080Z,21.94
2019-06-26T03:06:16.247Z,21.87
2019-06-26T03:07:26.000Z,21.9
2019-06-26T03:08:35.559Z,21.87
2019-06-26T03:09:45.707Z,21.88
2019-06-26T03:10:55.837Z,21.93
2019-06-26T03:12:05.971Z,21.91
2019-06-26T03:13:16.182Z,21.84
2019-06-26T03:14:26.298Z,21.91
2019-06-26T03:15:36.424Z,21.81
2019-06-26T03:16:46.536Z,21.81
2019-06-26T03:18:00.687Z,21.86
2019-06-26T03:19:11.974Z,21.78
2019-06-26T03:20:22.120Z,21.84
2019-06-26T03:21:32.226Z,21.91
2019-06-26T03:22:42.400Z,21.9
2019-06-26T03:23:52.556Z,21.86
2019-06-26T03:25:02.664Z,21.87
2019-06-26T03:26:12.782Z,21.96
2019-06-26T03:27:23.095Z,21.87
2019-06-26T03:28:32.976Z,21.9
2019-06-26T03:29:43.087Z,21.88
2019-06-26T03:30:53.267Z,21.84
2019-06-26T03:32:03.438Z,21.87
2019-06-26T03:33:13.621Z,21.96
2019-06-26T03:34:23.739Z,21.87
2019-06-26T03:35:33.924Z,21.9
2019-06-26T03:36:46.311Z,21.88
2019-06-26T03:37:56.428Z,21.91
2019-06-26T03:39:06.360Z,21.87
2019-06-26T03:40:16.481Z,21.96
2019-06-26T03:41:26.341Z,21.91
2019-06-26T03:42:36.480Z,21.93
2019-06-26T03:43:46.669Z,21.94
2019-06-26T03:44:56.844Z,21.97
2019-06-26T03:46:07.238Z,21.98
2019-06-26T03:47:17.392Z,21.96
2019-06-26T03:48:27.532Z,22.02
2019-06-26T03:49:37.642Z,22.03
2019-06-26T03:50:47.815Z,22.08
2019-06-26T03:51:58.010Z,22.09
2019-06-26T03:53:07.923Z,22.12
2019-06-26T03:54:17.688Z,22.09
2019-06-26T03:55:27.812Z,22.16
2019-06-26T03:56:37.666Z,22.11
2019-06-26T03:57:47.801Z,22.23
2019-06-26T03:58:58.079Z,22.18
2019-06-26T04:00:08.226Z,22.16
2019-06-26T04:01:18.531Z,22.21
2019-06-26T04:02:28.661Z,22.28
2019-06-26T04:03:38.796Z,22.24
2019-06-26T04:04:48.907Z,22.31
2019-06-26T04:05:59.036Z,22.31
2019-06-26T04:07:09.149Z,22.28
2019-06-26T04:08:19.266Z,22.31
2019-06-26T04:09:29.394Z,22.34
2019-06-26T04:10:42.967Z,22.3
2019-06-26T04:11:53.475Z,22.34
2019-06-26T04:13:03.636Z,22.3
2019-06-26T04:14:13.754Z,22.39
2019-06-26T04:15:23.849Z,22.39
2019-06-26T04:16:49.192Z,22.31
2019-06-26T04:17:59.309Z,22.48
2019-06-26T04:19:09.470Z,22.45
2019-06-26T04:20:19.645Z,22.43
2019-06-26T04:21:29.757Z,22.52
2019-06-26T04:22:39.878Z,22.49
2019-06-26T04:23:52.959Z,22.6
2019-06-26T04:25:02.828Z,22.53
2019-06-26T04:26:12.936Z,22.58
2019-06-26T04:27:23.067Z,22.61
2019-06-26T04:28:33.193Z,22.63
2019-06-26T04:29:43.309Z,22.61
2019-06-26T04:30:53.442Z,22.61
2019-06-26T04:32:03.547Z,22.65
2019-06-26T04:33:13.661Z,22.64
2019-06-26T04:34:23.781Z,22.65
2019-06-26T04:35:33.635Z,22.65
2019-06-26T04:36:43.749Z,22.65
2019-06-26T04:37:53.892Z,22.67
2019-06-26T04:39:04.151Z,22.61
2019-06-26T04:40:14.271Z,22.61
2019-06-26T04:41:28.084Z,22.67
2019-06-26T04:42:38.256Z,22.67
2019-06-26T04:43:48.475Z,22.61
2019-06-26T04:44:58.605Z,22.65
2019-06-26T04:46:08.705Z,22.71
2019-06-26T04:47:18.825Z,22.76
2019-06-26T04:48:28.949Z,22.85
2019-06-26T04:49:39.068Z,22.87
2019-06-26T04:50:49.226Z,22.87
2019-06-26T04:51:59.454Z,22.95
2019-06-26T04:53:09.584Z,22.86
2019-06-26T04:54:19.709Z,23.05
2019-06-26T04:55:29.997Z,23.01
2019-06-26T04:56:40.129Z,23.01
2019-06-26T04:57:50.421Z,23.03
2019-06-26T04:59:00.548Z,23.09
2019-06-26T05:00:10.683Z,23.18
2019-06-26T05:01:20.564Z,23.17
2019-06-26T05:02:30.709Z,23.16
2019-06-26T05:03:41.006Z,23.24
2019-06-26T05:04:51.178Z,23.24
2019-06-26T05:06:01.277Z,23.39
2019-06-26T05:07:11.411Z,23.36
2019-06-26T05:08:21.722Z,23.35
2019-06-26T05:09:31.836Z,23.38
2019-06-26T05:10:41.994Z,23.42
2019-06-26T05:11:51.852Z,23.4
2019-06-26T05:13:01.969Z,23.48
2019-06-26T05:14:12.107Z,23.57
2019-06-26T05:15:22.250Z,23.63
2019-06-26T05:16:32.428Z,23.7
2019-06-26T05:17:42.585Z,23.65
2019-06-26T05:18:52.716Z,23.73
2019-06-26T05:20:03.098Z,23.77
2019-06-26T05:21:13.252Z,23.73
2019-06-26T05:22:23.485Z,23.8
2019-06-26T05:23:33.621Z,23.77
2019-06-26T05:24:46.394Z,23.9
2019-06-26T05:25:56.703Z,23.95
2019-06-26T05:27:06.838Z,23.94
2019-06-26T05:28:16.698Z,24
2019-06-26T05:29:26.948Z,24.1
2019-06-26T05:30:37.164Z,24
2019-06-26T05:31:47.437Z,24.02
2019-06-26T05:32:57.652Z,24.06
2019-06-26T05:34:10.839Z,24.09
2019-06-26T05:35:21.233Z,24.1
2019-06-26T05:36:31.348Z,24.15
2019-06-26T05:37:41.532Z,24.13
2019-06-26T05:38:51.638Z,24.22
2019-06-26T05:39:49.293Z,24.27
2019-06-26T05:41:02.576Z,24.24
2019-06-26T05:42:12.722Z,24.35
2019-06-26T05:43:22.687Z,24.43
2019-06-26T05:44:32.805Z,24.45
2019-06-26T05:45:42.676Z,24.47
2019-06-26T05:46:52.934Z,24.57
2019-06-26T05:48:02.968Z,24.62
2019-06-26T05:49:13.233Z,24.58
2019-06-26T05:50:23.344Z,24.65
2019-06-26T05:51:33.511Z,24.69
2019-06-26T05:52:47.265Z,24.67
2019-06-26T05:53:57.468Z,24.8
2019-06-26T05:55:07.595Z,24.85
2019-06-26T05:56:17.773Z,24.87
2019-06-26T05:57:27.923Z,24.92
2019-06-26T05:58:38.040Z,25.02
2019-06-26T05:59:48.209Z,25.06
2019-06-26T06:00:58.380Z,25.09
2019-06-26T06:02:08.575Z,25.05
2019-06-26T06:03:18.709Z,25.17
2019-06-26T06:04:28.604Z,25.21
2019-06-26T06:05:38.737Z,25.24
2019-06-26T06:06:48.712Z,25.25
2019-06-26T06:07:58.851Z,25.22
2019-06-26T06:09:08.964Z,25.25
2019-06-26T06:10:19.119Z,25.4
2019-06-26T06:11:29.250Z,25.39
2019-06-26T06:12:39.376Z,25.46
2019-06-26T06:13:49.468Z,25.49
2019-06-26T06:14:59.607Z,25.55
2019-06-26T06:16:11.461Z,25.49
2019-06-26T06:17:21.666Z,25.69
2019-06-26T06:21:02.348Z,25.69
2019-06-26T06:23:27.422Z,25.88
2019-06-26T06:24:37.552Z,25.88
2019-06-26T06:27:02.519Z,25.96
2019-06-26T06:30:40.312Z,26
2019-06-26T06:31:50.464Z,26.12
2019-06-26T06:33:00.657Z,26.09
2019-06-26T06:34:10.787Z,26.21
2019-06-26T06:35:20.924Z,26.19
2019-06-26T06:36:31.046Z,26.3
2019-06-26T06:37:40.807Z,26.18
2019-06-26T06:38:51.055Z,26.31
2019-06-26T06:40:01.258Z,26.33
2019-06-26T06:41:11.390Z,26.31
2019-06-26T06:42:21.499Z,26.39
2019-06-26T06:43:31.693Z,26.4
2019-06-26T06:44:41.676Z,26.4
2019-06-26T06:45:52.156Z,26.46
2019-06-26T06:47:11.460Z,26.51
2019-06-26T06:48:21.604Z,26.46
2019-06-26T06:49:31.727Z,26.48
2019-06-26T06:50:41.831Z,26.53
2019-06-26T06:51:51.993Z,26.58
2019-06-26T06:53:02.145Z,26.66
2019-06-26T06:54:12.281Z,26.67
2019-06-26T06:55:22.424Z,26.73
2019-06-26T06:56:32.592Z,26.68
2019-06-26T06:57:42.726Z,26.75
2019-06-26T06:58:52.872Z,26.77
2019-06-26T07:00:03.344Z,26.78
2019-06-26T07:01:13.483Z,26.86
2019-06-26T07:02:23.623Z,26.86
2019-06-26T07:03:33.800Z,26.86
2019-06-26T07:04:43.968Z,26.85
2019-06-26T07:05:53.821Z,26.93
2019-06-26T07:07:03.950Z,26.95
2019-06-26T07:08:14.064Z,27.01
2019-06-26T07:09:24.164Z,26.93
2019-06-26T07:10:34.299Z,26.93
2019-06-26T07:11:44.400Z,26.99
2019-06-26T07:12:54.597Z,26.98
2019-06-26T07:14:04.833Z,27.07
2019-06-26T07:15:14.960Z,27.03
2019-06-26T07:16:25.139Z,27.11
2019-06-26T07:17:35.272Z,27.08
2019-06-26T07:18:45.618Z,27.12
2019-06-26T07:19:55.753Z,27.24
2019-06-26T07:21:05.874Z,27.23
2019-06-26T07:22:16.010Z,27.28
2019-06-26T07:23:26.150Z,27.3
2019-06-26T07:24:36.356Z,27.27
2019-06-26T07:25:46.477Z,27.33
2019-06-26T07:26:56.574Z,27.33
2019-06-26T07:28:07.291Z,27.43
2019-06-26T07:29:17.555Z,27.45
2019-06-26T07:30:27.708Z,27.35
2019-06-26T07:31:40.940Z,27.39
2019-06-26T07:32:51.299Z,27.46
2019-06-26T07:34:01.445Z,27.53
2019-06-26T07:35:11.591Z,27.53
2019-06-26T07:36:21.809Z,27.52
2019-06-26T07:37:31.941Z,27.63
2019-06-26T07:38:42.079Z,27.64
2019-06-26T07:39:51.966Z,27.7
2019-06-26T07:41:08.406Z,27.7
2019-06-26T07:42:18.588Z,27.65
2019-06-26T07:43:28.769Z,27.8
2019-06-26T07:44:38.936Z,27.76
2019-06-26T07:45:48.844Z,27.83
2019-06-26T07:46:58.994Z,27.85
2019-06-26T07:48:09.170Z,27.86
2019-06-26T07:49:19.332Z,27.92
2019-06-26T07:50:32.309Z,28.07
2019-06-26T07:51:42.646Z,28
2019-06-26T07:52:52.827Z,28.01
2019-06-26T07:54:03.046Z,28.16
2019-06-26T07:55:16.651Z,28.17
2019-06-26T07:56:26.821Z,28.23
2019-06-26T07:57:37.117Z,28.19
2019-06-26T07:58:47.243Z,28.2
2019-06-26T07:59:57.366Z,28.2
2019-06-26T08:01:07.687Z,28.36
2019-06-26T08:02:17.828Z,28.42
2019-06-26T08:03:27.982Z,28.42
2019-06-26T08:04:38.122Z,28.51
2019-06-26T08:05:48.404Z,28.45
2019-06-26T08:06:58.567Z,28.54
2019-06-26T08:08:08.858Z,28.51
2019-06-26T08:09:22.521Z,28.64
2019-06-26T08:10:32.444Z,28.74
2019-06-26T08:11:42.400Z,28.74
2019-06-26T08:12:52.513Z,28.67
2019-06-26T08:14:02.813Z,28.73
2019-06-26T08:15:13.002Z,28.73
2019-06-26T08:16:22.928Z,28.77
2019-06-26T08:17:33.180Z,28.77
2019-06-26T08:18:43.342Z,28.83
2019-06-26T08:19:53.533Z,28.92
2019-06-26T08:21:16.737Z,28.99
2019-06-26T08:22:26.873Z,28.95
2019-06-26T08:23:36.862Z,29.02
2019-06-26T08:24:46.990Z,29.03
2019-06-26T08:25:57.155Z,29.07
2019-06-26T08:27:07.356Z,29.16
2019-06-26T08:28:20.799Z,29.25
2019-06-26T08:29:30.730Z,29.29
2019-06-26T08:30:40.858Z,29.32
2019-06-26T08:31:50.986Z,29.35
2019-06-26T08:33:01.133Z,29.4
2019-06-26T08:34:11.333Z,29.36
2019-06-26T08:35:21.443Z,29.43
2019-06-26T08:36:31.607Z,29.43
2019-06-26T08:37:41.734Z,29.55
2019-06-26T08:38:51.879Z,29.66
2019-06-26T08:40:01.999Z,29.76
2019-06-26T08:41:12.138Z,29.76
2019-06-26T08:42:22.127Z,29.94
2019-06-26T08:43:35.682Z,30.07
2019-06-26T08:44:45.792Z,30.12
2019-06-26T08:45:55.953Z,30.2
2019-06-26T08:47:06.118Z,30.29
2019-06-26T08:48:41.759Z,30.44
2019-06-26T08:49:51.890Z,30.51
2019-06-26T08:51:02.019Z,30.44
2019-06-26T08:52:12.231Z,30.53
2019-06-26T08:53:22.132Z,30.63
2019-06-26T08:54:32.505Z,30.79
2019-06-26T08:55:42.708Z,30.91
2019-06-26T08:56:52.916Z,30.94
2019-06-26T08:58:03.086Z,31.12
2019-06-26T08:59:13.310Z,31.27
2019-06-26T09:00:23.459Z,31.55
2019-06-26T09:01:33.601Z,31.85
2019-06-26T09:02:43.732Z,32.29
2019-06-26T09:03:53.889Z,32.69
2019-06-26T09:05:04.031Z,33.37
2019-06-26T09:06:14.156Z,33.86
2019-06-26T09:07:24.300Z,34.31
2019-06-26T09:08:34.749Z,34.7
2019-06-26T09:09:44.885Z,34.88
2019-06-26T09:10:55.037Z,35.18
2019-06-26T09:12:05.377Z,35.35
2019-06-26T09:13:15.504Z,35.47
2019-06-26T09:14:25.623Z,35.71
2019-06-26T09:15:35.847Z,35.77
2019-06-26T09:16:48.489Z,35.87
2019-06-26T09:17:58.428Z,35.95
2019-06-26T09:19:08.598Z,35.97
2019-06-26T09:20:18.735Z,35.97
2019-06-26T09:21:31.128Z,35.98
2019-06-26T09:22:41.662Z,35.95
2019-06-26T09:23:51.893Z,35.95
2019-06-26T09:25:16.739Z,36.06
2019-06-26T09:26:31.364Z,36.09
2019-06-26T09:27:42.717Z,36.14
2019-06-26T09:30:07.098Z,36.35
2019-06-26T09:31:18.085Z,36.4
2019-06-26T09:33:43.212Z,36.57
2019-06-26T09:34:56.386Z,36.6
2019-06-26T09:36:09.414Z,36.67
2019-06-26T09:37:19.547Z,36.89
2019-06-26T09:38:29.696Z,36.89
2019-06-26T09:40:54.800Z,36.91
2019-06-26T09:44:35.050Z,37.24
2019-06-26T09:45:45.418Z,37.41
2019-06-26T09:46:55.586Z,37.61
2019-06-26T09:48:05.971Z,37.62
2019-06-26T09:49:16.089Z,37.71
2019-06-26T09:50:26.244Z,37.67
2019-06-26T09:51:39.961Z,37.65
2019-06-26T09:52:50.343Z,37.7
2019-06-26T09:54:01.934Z,37.77
2019-06-26T09:55:11.881Z,37.8
2019-06-26T09:56:22.147Z,37.95
2019-06-26T09:57:35.894Z,37.86
2019-06-26T09:58:47.831Z,37.84
2019-06-26T09:59:58.005Z,37.75
2019-06-26T10:01:08.357Z,37.7
2019-06-26T10:02:18.557Z,37.68
2019-06-26T10:03:29.729Z,37.75
2019-06-26T10:04:41.298Z,37.8
2019-06-26T10:05:51.446Z,37.65
2019-06-26T10:07:02.213Z,37.7
2019-06-26T10:08:12.664Z,37.71
2019-06-26T10:09:22.849Z,37.67
2019-06-26T10:10:33.049Z,37.7
2019-06-26T10:11:43.209Z,37.77
2019-06-26T10:12:53.339Z,37.86
2019-06-26T10:14:03.483Z,37.86
2019-06-26T10:15:13.659Z,37.92
2019-06-26T10:16:23.802Z,37.8
2019-06-26T10:17:34.771Z,37.68
2019-06-26T10:18:45.197Z,37.68
2019-06-26T10:19:58.959Z,37.68
2019-06-26T10:21:09.294Z,37.58
2019-06-26T10:22:19.444Z,37.42
2019-06-26T10:24:51.135Z,37.58
2019-06-26T10:26:02.747Z,37.57
2019-06-26T10:27:12.923Z,37.65
2019-06-26T10:28:23.134Z,37.61
2019-06-26T10:29:35.765Z,37.6
2019-06-26T10:30:45.574Z,37.67
2019-06-26T10:31:55.801Z,37.7
2019-06-26T10:33:06.004Z,37.75
2019-06-26T10:34:16.157Z,37.84
2019-06-26T10:37:55.006Z,38.16
2019-06-26T10:39:06.014Z,38.18
2019-06-26T10:40:19.008Z,38.06
2019-06-26T10:41:28.553Z,38.06
2019-06-26T10:42:38.700Z,37.96
2019-06-26T10:45:31.328Z,37.86
2019-06-26T10:46:44.655Z,37.82
2019-06-26T10:49:25.721Z,37.65
2019-06-26T10:50:47.810Z,37.62
2019-06-26T10:52:05.701Z,37.77
2019-06-26T10:53:17.113Z,37.68
2019-06-26T10:54:27.271Z,37.68
2019-06-26T10:55:37.410Z,37.67
2019-06-26T10:56:47.594Z,37.67
2019-06-26T10:57:57.759Z,37.46
2019-06-26T10:59:08.135Z,37.41
2019-06-26T11:00:18.302Z,37.43
2019-06-26T11:01:28.479Z,37.5
2019-06-26T11:02:38.655Z,37.68
2019-06-26T11:03:48.809Z,37.77
2019-06-26T11:04:58.985Z,37.9
2019-06-26T11:06:09.176Z,37.94
2019-06-26T11:07:19.342Z,37.98
2019-06-26T11:08:29.498Z,37.99
2019-06-26T11:09:39.638Z,37.84
2019-06-26T11:10:49.867Z,37.84
2019-06-26T11:12:00.327Z,37.87
2019-06-26T11:13:10.541Z,37.83
2019-06-26T11:14:20.490Z,37.96
2019-06-26T11:15:30.669Z,37.96
2019-06-26T11:16:41.013Z,37.84
2019-06-26T11:17:51.171Z,37.77
2019-06-26T11:19:01.387Z,37.79
2019-06-26T11:20:11.554Z,37.71
2019-06-26T11:21:21.736Z,37.61
2019-06-26T11:22:31.930Z,37.58
2019-06-26T11:23:42.110Z,37.6
2019-06-26T11:24:52.168Z,37.57
2019-06-26T11:26:02.423Z,37.62
2019-06-26T11:27:12.562Z,37.64
2019-06-26T11:28:22.732Z,37.6
2019-06-26T11:29:32.911Z,37.6
2019-06-26T11:30:43.054Z,37.57
2019-06-26T11:31:53.207Z,37.38
2019-06-26T11:33:03.439Z,37.45
2019-06-26T11:34:13.665Z,37.41
2019-06-26T11:35:24.097Z,37.58
2019-06-26T11:36:34.404Z,37.55
2019-06-26T11:37:44.562Z,37.65
2019-06-26T11:38:54.487Z,37.7
2019-06-26T11:40:04.725Z,37.7
2019-06-26T11:41:14.937Z,37.61
2019-06-26T11:42:25.135Z,37.57
2019-06-26T11:43:38.206Z,37.36
2019-06-26T11:44:48.391Z,37.36
2019-06-26T11:45:58.561Z,37.45
2019-06-26T11:47:08.716Z,37.38
2019-06-26T11:48:18.648Z,37.33
2019-06-26T11:49:28.826Z,37.45
2019-06-26T11:50:38.954Z,37.42
2019-06-26T11:51:49.111Z,37.49
2019-06-26T11:52:59.636Z,37.21
2019-06-26T11:54:09.808Z,37
2019-06-26T11:55:19.954Z,36.7
2019-06-26T11:56:29.915Z,36.55
2019-06-26T11:57:40.332Z,36.42
2019-06-26T11:58:50.486Z,36.28
2019-06-26T12:00:00.637Z,35.86
2019-06-26T12:01:11.098Z,35.62
2019-06-26T12:02:21.281Z,35.62
2019-06-26T12:03:31.471Z,35.59
2019-06-26T12:04:41.611Z,35.57
2019-06-26T12:05:51.479Z,35.62
2019-06-26T12:07:24.251Z,35.57
2019-06-26T12:08:34.548Z,35.69
2019-06-26T12:09:45.062Z,35.92
2019-06-26T12:10:55.350Z,35.95
2019-06-26T12:12:05.531Z,36.05
2019-06-26T12:13:15.686Z,36.02
2019-06-26T12:14:25.839Z,36.04
2019-06-26T12:15:36.231Z,36.13
2019-06-26T12:16:46.493Z,36.13
2019-06-26T12:17:56.791Z,36.18
2019-06-26T12:19:06.943Z,36.31
2019-06-26T12:20:23.758Z,36.4
2019-06-26T12:21:34.265Z,36.38
2019-06-26T12:22:44.460Z,36.43
2019-06-26T12:23:54.635Z,36.45
2019-06-26T12:25:04.794Z,36.31
2019-06-26T12:26:14.970Z,36.06
2019-06-26T12:27:25.146Z,35.97
2019-06-26T12:28:35.297Z,35.87
2019-06-26T12:29:45.442Z,35.71
2019-06-26T12:30:55.597Z,35.57
2019-06-26T12:32:05.748Z,35.48
2019-06-26T12:33:15.928Z,35.53
2019-06-26T12:34:26.073Z,35.44
2019-06-26T12:35:35.716Z,35.28
2019-06-26T12:36:45.619Z,35.23
2019-06-26T12:37:55.830Z,35.07
2019-06-26T12:39:06.296Z,35.14
2019-06-26T12:40:16.521Z,35.03
2019-06-26T12:41:26.730Z,35.03
2019-06-26T12:42:36.906Z,35.08
2019-06-26T12:43:47.101Z,35.08
2019-06-26T12:44:57.244Z,35.01
2019-06-26T12:46:07.382Z,34.99
2019-06-26T12:47:17.314Z,34.99
2019-06-26T12:48:27.502Z,34.77
2019-06-26T12:49:37.690Z,34.84
2019-06-26T12:50:47.821Z,34.81
2019-06-26T12:51:58.030Z,34.82
2019-06-26T12:53:08.182Z,34.74
2019-06-26T12:54:18.334Z,34.73
2019-06-26T12:55:32.665Z,34.74
2019-06-26T12:56:43.069Z,34.69
2019-06-26T12:57:53.246Z,34.72
2019-06-26T12:59:25.348Z,34.7
2019-06-26T13:00:35.724Z,34.66
2019-06-26T13:01:45.893Z,34.63
2019-06-26T13:02:56.065Z,34.57
2019-06-26T13:04:06.356Z,34.44
2019-06-26T13:05:16.552Z,34.45
2019-06-26T13:06:26.716Z,34.29
2019-06-26T13:07:36.527Z,34.27
2019-06-26T13:08:46.758Z,34.2
2019-06-26T13:09:57.067Z,34.17
2019-06-26T13:11:07.611Z,34.25
2019-06-26T13:12:17.895Z,34.12
2019-06-26T13:13:28.162Z,34.08
2019-06-26T13:14:38.324Z,34.09
2019-06-26T13:15:50.878Z,34.16
2019-06-26T13:17:01.282Z,34.08
2019-06-26T13:18:11.469Z,34.08
2019-06-26T13:19:21.754Z,34.09
2019-06-26T13:20:31.997Z,34.05
2019-06-26T13:21:59.518Z,34.05
2019-06-26T13:23:09.728Z,34.12
2019-06-26T13:24:22.751Z,34.1
2019-06-26T13:25:32.907Z,34.01
2019-06-26T13:26:42.569Z,34.06
2019-06-26T13:27:53.083Z,34.01
2019-06-26T13:29:03.226Z,34.01
2019-06-26T13:30:17.117Z,33.97
2019-06-26T13:31:27.491Z,33.88
2019-06-26T13:32:37.626Z,33.93
2019-06-26T13:33:47.820Z,33.93
2019-06-26T13:34:58.033Z,33.93
2019-06-26T13:36:08.267Z,33.93
2019-06-26T13:37:18.447Z,33.87
2019-06-26T13:38:31.960Z,33.81
2019-06-26T13:39:42.107Z,33.81
2019-06-26T13:40:52.240Z,33.66
2019-06-26T13:42:02.409Z,33.68
2019-06-26T13:43:12.424Z,33.61
2019-06-26T13:44:22.595Z,33.61
2019-06-26T13:45:32.768Z,33.64
2019-06-26T13:46:42.680Z,33.57
2019-06-26T13:47:52.867Z,33.57
2019-06-26T13:49:03.013Z,33.56
2019-06-26T13:50:13.202Z,33.59
2019-06-26T13:51:26.332Z,33.56
2019-06-26T13:52:36.473Z,33.6
2019-06-26T13:53:46.680Z,33.6
2019-06-26T13:54:59.753Z,33.59
2019-06-26T13:56:09.908Z,33.63
2019-06-26T13:57:20.902Z,33.6
2019-06-26T13:58:31.133Z,33.47
2019-06-26T13:59:41.283Z,33.48
2019-06-26T14:00:51.480Z,33.48
2019-06-26T14:02:01.712Z,33.57
2019-06-26T14:03:11.902Z,33.44
2019-06-26T14:04:22.114Z,33.54
2019-06-26T14:05:34.492Z,33.53
2019-06-26T14:06:44.630Z,33.47
2019-06-26T14:07:54.799Z,33.44
2019-06-26T14:09:04.983Z,33.5
2019-06-26T14:10:15.206Z,33.52
2019-06-26T14:11:25.091Z,33.47
2019-06-26T14:12:35.303Z,33.45
2019-06-26T14:13:46.891Z,33.45
2019-06-26T14:15:02.549Z,33.47
2019-06-26T14:16:12.739Z,33.37
2019-06-26T14:17:23.030Z,33.34
2019-06-26T14:18:35.326Z,33.38
2019-06-26T14:19:45.539Z,33.31
2019-06-26T14:20:55.684Z,33.29
2019-06-26T14:22:05.956Z,33.31
2019-06-26T14:23:18.551Z,33.25
2019-06-26T14:24:28.769Z,33.26
2019-06-26T14:25:38.954Z,33.19
2019-06-26T14:26:49.112Z,33.08
2019-06-26T14:27:59.241Z,33.16
2019-06-26T14:29:24.825Z,33.15
2019-06-26T14:30:35.168Z,33.17
2019-06-26T14:31:45.306Z,33.13
2019-06-26T14:32:55.577Z,33.25
2019-06-26T14:34:05.764Z,33.16
2019-06-26T14:35:15.896Z,33.22
2019-06-26T14:36:28.358Z,33.15
2019-06-26T14:37:38.528Z,33.2
2019-06-26T14:38:48.702Z,33.16
2019-06-26T14:39:58.867Z,33.13
2019-06-26T14:41:09.027Z,33.08
2019-06-26T14:42:19.320Z,33.08
2019-06-26T14:43:29.275Z,33.05
2019-06-26T14:44:39.437Z,33.04
2019-06-26T14:45:49.590Z,32.92
2019-06-26T14:46:59.743Z,33.04
2019-06-26T14:48:10.031Z,32.88
2019-06-26T14:49:20.251Z,32.96
2019-06-26T14:50:30.654Z,33.03
2019-06-26T14:51:51.504Z,32.87
2019-06-26T14:53:01.670Z,32.87
2019-06-26T14:54:11.805Z,32.92
2019-06-26T14:55:22.018Z,32.84
2019-06-26T14:56:32.172Z,32.81
2019-06-26T14:57:42.323Z,32.88
2019-06-26T14:58:52.243Z,32.85
2019-06-26T15:00:02.484Z,32.89
2019-06-26T15:01:12.412Z,32.85
2019-06-26T15:02:22.581Z,32.8
2019-06-26T15:03:32.776Z,32.8
2019-06-26T15:04:45.883Z,32.8
2019-06-26T15:05:56.444Z,32.78
2019-06-26T15:07:23.183Z,32.78
2019-06-26T15:08:33.325Z,32.75
2019-06-26T15:09:43.516Z,32.78
2019-06-26T15:10:53.678Z,32.63
2019-06-26T15:12:03.859Z,32.62
2019-06-26T15:13:14.010Z,32.62
2019-06-26T15:14:24.339Z,32.63
2019-06-26T15:15:34.561Z,32.68
2019-06-26T15:16:44.704Z,32.66
2019-06-26T15:17:54.880Z,32.66
2019-06-26T15:19:05.092Z,32.68
2019-06-26T15:20:15.265Z,32.68
2019-06-26T15:21:25.407Z,32.63
2019-06-26T15:22:35.560Z,32.6
2019-06-26T15:23:45.806Z,32.66
2019-06-26T15:24:55.958Z,32.63
2019-06-26T15:26:06.116Z,32.56
2019-06-26T15:27:16.280Z,32.54
2019-06-26T15:28:26.436Z,32.6
2019-06-26T15:29:36.610Z,32.63
2019-06-26T15:30:46.871Z,32.59
2019-06-26T15:31:56.802Z,32.62
2019-06-26T15:33:06.968Z,32.54
2019-06-26T15:34:17.173Z,32.56